»·PEaware :: N717TS KBLI-C72

N717TS :: KBLI-C72

FLIGHT INFORMATION

Flight Status: Arrived
Operator: Privately registered:
United States
More flights under this callsign
Pilot: Ty S. (2873)
Aircraft: Diamond DA-62
(DA62)
More flights by this aircraft type
Origin: KBLI Bellingham Intl
United States
Destination: C72 Cross Winds
United States
More flights between these airports :: More routes between these airports
Route: KIENO6 CRNEL T332 ROZTY
File this flight plan on PilotEdge
Remarks:
Altitude:
(Current/Filed)
13,000ft
Speed:
(Current/Filed)
180kts
Departed: 08-May-20 04:18 PM
Arrived: 08-May-20 05:39 PM
Distance/Time
Traveled:
205nm/1:21
Distance/Time
To Go:
Arrived

Flight Plot

Page will automatically refresh every two minutes.

Flight plan parsing failed; only flown route is shown


Map Options




Map Legend


Flown Route
Filed Route
Departure Airport
Arrival Airport
Navaid (VOR, NDB)
Fix

Horizontal Profiles

Position Reports

Time Latitude Longitude Heading Altitude Ground
Speed
08-May-20 16:00 48.792406 -122.533716 236 157ft 0kts
08-May-20 16:01 48.792406 -122.533716 236 157ft 0kts
08-May-20 16:02 48.792406 -122.533716 236 157ft 0kts
08-May-20 16:03 48.792406 -122.533716 236 157ft 0kts
08-May-20 16:04 48.792406 -122.533717 236 157ft 0kts
08-May-20 16:05 48.790316 -122.535783 180 159ft 10kts
08-May-20 16:05 48.786350 -122.535792 181 164ft 21kts
08-May-20 16:07 48.784304 -122.536239 118 168ft 0kts
08-May-20 16:08 48.784304 -122.536239 118 168ft 0kts
08-May-20 16:08 48.784304 -122.536239 118 168ft 0kts
08-May-20 16:09 48.784304 -122.536239 118 168ft 0kts
08-May-20 16:13 48.787567 -122.534214 270 173ft 0kts
08-May-20 16:14 48.787568 -122.534252 270 173ft 2kts
08-May-20 16:15 48.785366 -122.535800 173 173ft 16kts
08-May-20 16:16 48.783668 -122.536206 253 173ft 0kts
08-May-20 16:17 48.790424 -122.537506 355 222ft 88kts
08-May-20 16:18 48.815003 -122.541879 302 1416ft 98kts
08-May-20 16:19 48.794846 -122.561715 192 2753ft 120kts
08-May-20 16:20 48.762908 -122.569506 187 4239ft 114kts
08-May-20 16:21 48.731678 -122.575918 184 5516ft 115kts
08-May-20 16:22 48.699742 -122.578208 179 6756ft 116kts
08-May-20 16:23 48.667676 -122.577664 153 7978ft 115kts
08-May-20 16:24 48.645453 -122.544640 128 9182ft 113kts
08-May-20 16:25 48.624990 -122.507919 127 10373ft 115kts
08-May-20 16:26 48.604745 -122.470309 127 11540ft 117kts
08-May-20 16:27 48.584260 -122.431947 127 12690ft 118kts
08-May-20 16:28 48.560066 -122.386559 127 13018ft 165kts
08-May-20 16:29 48.529206 -122.328730 128 13010ft 183kts
08-May-20 16:30 48.496864 -122.268250 128 13009ft 186kts
08-May-20 16:31 48.475829 -122.200147 89 13012ft 187kts
08-May-20 16:32 48.479589 -122.121935 84 13010ft 187kts
08-May-20 16:33 48.484900 -122.043664 84 13012ft 187kts
08-May-20 16:34 48.490342 -121.965129 84 13015ft 187kts
08-May-20 16:35 48.495729 -121.886858 84 13017ft 187kts
08-May-20 16:36 48.501062 -121.808602 84 13017ft 187kts
08-May-20 16:37 48.499679 -121.730615 103 13017ft 187kts
08-May-20 16:38 48.486965 -121.654549 104 13017ft 187kts
08-May-20 16:39 48.473855 -121.578772 104 13017ft 187kts
08-May-20 16:40 48.460541 -121.502390 104 13017ft 187kts
08-May-20 16:41 48.447200 -121.426236 104 13017ft 187kts
08-May-20 16:42 48.426088 -121.354110 114 13015ft 187kts
08-May-20 16:43 48.404114 -121.283638 115 13015ft 187kts
08-May-20 16:44 48.382962 -121.211836 98 13016ft 187kts
08-May-20 16:45 48.381253 -121.132787 91 13013ft 187kts
08-May-20 16:46 48.380983 -121.054435 91 13011ft 187kts
08-May-20 16:47 48.380753 -120.976018 90 13009ft 186kts
08-May-20 16:48 48.380503 -120.897911 90 13029ft 184kts
08-May-20 16:49 48.380196 -120.820345 90 13060ft 184kts
08-May-20 16:50 48.380667 -120.743301 87 13092ft 184kts
08-May-20 16:51 48.383709 -120.665933 87 13107ft 184kts
08-May-20 16:52 48.386811 -120.588277 87 13110ft 184kts
08-May-20 16:53 48.389854 -120.511004 87 13114ft 184kts
08-May-20 16:54 48.391628 -120.433426 91 13118ft 184kts
08-May-20 16:55 48.389749 -120.355909 92 13121ft 184kts
08-May-20 16:56 48.387682 -120.278877 93 13126ft 184kts
08-May-20 16:57 48.385528 -120.200980 93 13031ft 187kts
08-May-20 16:58 48.382214 -120.122773 100 13026ft 184kts
08-May-20 16:59 48.371717 -120.046456 102 13027ft 184kts
08-May-20 17:00 48.360844 -119.970585 102 13027ft 183kts
08-May-20 17:01 48.349830 -119.895184 103 13027ft 184kts
08-May-20 17:02 48.338695 -119.819126 102 13027ft 184kts
08-May-20 17:03 48.327638 -119.743433 102 13027ft 184kts
08-May-20 17:04 48.316553 -119.667857 102 13026ft 184kts
08-May-20 17:05 48.305413 -119.592280 102 13026ft 184kts
08-May-20 17:06 48.294202 -119.516586 102 13026ft 184kts
08-May-20 17:07 48.285033 -119.440371 100 13026ft 184kts
08-May-20 17:08 48.276194 -119.364261 100 13026ft 184kts
08-May-20 17:09 48.267852 -119.292738 100 13027ft 184kts
08-May-20 17:10 48.258882 -119.216256 100 13027ft 184kts
08-May-20 17:11 48.249919 -119.140279 100 13027ft 184kts
08-May-20 17:12 48.240822 -119.063620 100 13027ft 184kts
08-May-20 17:13 48.231733 -118.987618 100 13009ft 184kts
08-May-20 17:14 48.222574 -118.911429 99 13009ft 183kts
08-May-20 17:15 48.210977 -118.836313 101 13009ft 184kts
08-May-20 17:16 48.198794 -118.760938 101 13009ft 185kts
08-May-20 17:17 48.186490 -118.685337 101 13009ft 185kts
08-May-20 17:18 48.174153 -118.609929 101 13009ft 185kts
08-May-20 17:19 48.161669 -118.533951 101 13010ft 185kts
08-May-20 17:20 48.149234 -118.458616 101 13020ft 184kts
08-May-20 17:21 48.136745 -118.383316 101 13028ft 184kts
08-May-20 17:22 48.124506 -118.309820 102 13037ft 184kts
08-May-20 17:23 48.111954 -118.234772 102 13039ft 185kts
08-May-20 17:24 48.099324 -118.159528 102 13041ft 185kts
08-May-20 17:25 48.086714 -118.084777 102 13042ft 185kts
08-May-20 17:26 48.073992 -118.009704 102 13042ft 185kts
08-May-20 17:27 48.060958 -117.934859 104 13043ft 185kts
08-May-20 17:28 48.046373 -117.861004 104 12555ft 183kts
08-May-20 17:29 48.033837 -117.786747 101 12038ft 183kts
08-May-20 17:30 48.022487 -117.713100 100 11582ft 181kts
08-May-20 17:31 48.020293 -117.640587 72 10056ft 176kts
08-May-20 17:32 48.060213 -117.615886 336 7990ft 177kts
08-May-20 17:33 48.061801 -117.668515 189 6389ft 161kts
08-May-20 17:34 48.030182 -117.629000 115 4740ft 158kts
08-May-20 17:35 48.013031 -117.579412 113 3799ft 88kts
08-May-20 17:36 47.998944 -117.548885 136 2834ft 86kts
08-May-20 17:37 47.980235 -117.528763 143 2153ft 62kts
08-May-20 17:38 47.978103 -117.526479 327 2153ft 19kts
08-May-20 17:39 47.983060 -117.531427 329 2157ft 19kts

Navigation Log

Ident Type
Flight plan parsing failed, navigation log unavailable